sensor_id;sensor_type;location;lat;lon;timestamp;temperature;humidity
10123;DHT22;5101;49.038;8.710;2023-02-11T00:00:33;0.40;95.40
10123;DHT22;5101;49.038;8.710;2023-02-11T00:02:59;0.30;95.50
10123;DHT22;5101;49.038;8.710;2023-02-11T00:05:24;0.30;95.60
10123;DHT22;5101;49.038;8.710;2023-02-11T00:07:50;0.20;95.70
10123;DHT22;5101;49.038;8.710;2023-02-11T00:10:15;0.20;95.90
10123;DHT22;5101;49.038;8.710;2023-02-11T00:12:41;0.10;96.10
10123;DHT22;5101;49.038;8.710;2023-02-11T00:15:08;0.10;96.20
10123;DHT22;5101;49.038;8.710;2023-02-11T00:17:34;0.10;96.30
10123;DHT22;5101;49.038;8.710;2023-02-11T00:20:00;0.10;96.30
10123;DHT22;5101;49.038;8.710;2023-02-11T00:25:01;0.10;96.30
10123;DHT22;5101;49.038;8.710;2023-02-11T00:27:26;0.20;96.30
10123;DHT22;5101;49.038;8.710;2023-02-11T00:29:52;0.20;96.30
10123;DHT22;5101;49.038;8.710;2023-02-11T00:32:17;0.20;96.30
10123;DHT22;5101;49.038;8.710;2023-02-11T00:34:43;0.20;96.30
10123;DHT22;5101;49.038;8.710;2023-02-11T00:37:08;0.20;96.30
10123;DHT22;5101;49.038;8.710;2023-02-11T00:39:35;0.20;96.20
10123;DHT22;5101;49.038;8.710;2023-02-11T00:42:01;0.20;96.30
10123;DHT22;5101;49.038;8.710;2023-02-11T00:44:26;0.20;96.20
10123;DHT22;5101;49.038;8.710;2023-02-11T00:46:52;0.20;96.20
10123;DHT22;5101;49.038;8.710;2023-02-11T00:49:17;0.20;96.20
10123;DHT22;5101;49.038;8.710;2023-02-11T00:51:43;0.20;96.20
10123;DHT22;5101;49.038;8.710;2023-02-11T00:54:09;0.20;96.30
10123;DHT22;5101;49.038;8.710;2023-02-11T00:56:34;0.20;96.30
10123;DHT22;5101;49.038;8.710;2023-02-11T00:59:00;0.20;96.60
10123;DHT22;5101;49.038;8.710;2023-02-11T01:01:25;0.20;96.40
10123;DHT22;5101;49.038;8.710;2023-02-11T01:03:51;0.20;96.50
10123;DHT22;5101;49.038;8.710;2023-02-11T01:06:16;0.20;96.50
10123;DHT22;5101;49.038;8.710;2023-02-11T01:08:42;0.10;96.50
10123;DHT22;5101;49.038;8.710;2023-02-11T01:11:14;0.10;96.60
10123;DHT22;5101;49.038;8.710;2023-02-11T01:13:41;0.10;96.70
10123;DHT22;5101;49.038;8.710;2023-02-11T01:16:07;0.00;96.70
10123;DHT22;5101;49.038;8.710;2023-02-11T01:18:33;-0.10;96.90
10123;DHT22;5101;49.038;8.710;2023-02-11T01:20:59;-0.10;97.00
10123;DHT22;5101;49.038;8.710;2023-02-11T01:23:24;-0.10;97.00
10123;DHT22;5101;49.038;8.710;2023-02-11T01:25:50;-0.10;97.10
10123;DHT22;5101;49.038;8.710;2023-02-11T01:28:18;-0.10;97.10
10123;DHT22;5101;49.038;8.710;2023-02-11T01:30:44;-0.20;97.10
10123;DHT22;5101;49.038;8.710;2023-02-11T01:33:09;-0.20;97.20
10123;DHT22;5101;49.038;8.710;2023-02-11T01:35:37;-0.10;97.20
10123;DHT22;5101;49.038;8.710;2023-02-11T01:38:02;0.20;97.30
10123;DHT22;5101;49.038;8.710;2023-02-11T01:40:28;-0.20;97.20
10123;DHT22;5101;49.038;8.710;2023-02-11T01:42:53;-0.10;97.30
10123;DHT22;5101;49.038;8.710;2023-02-11T01:48:16;-0.10;97.40
10123;DHT22;5101;49.038;8.710;2023-02-11T01:50:42;-0.10;97.40
10123;DHT22;5101;49.038;8.710;2023-02-11T01:53:09;-0.10;97.40
10123;DHT22;5101;49.038;8.710;2023-02-11T01:55:55;-0.10;97.40
10123;DHT22;5101;49.038;8.710;2023-02-11T01:58:41;-0.10;97.50
10123;DHT22;5101;49.038;8.710;2023-02-11T02:01:08;-0.10;97.50
10123;DHT22;5101;49.038;8.710;2023-02-11T02:03:36;-0.10;97.60
10123;DHT22;5101;49.038;8.710;2023-02-11T02:06:14;-0.10;97.70
10123;DHT22;5101;49.038;8.710;2023-02-11T02:08:48;-0.10;97.80
10123;DHT22;5101;49.038;8.710;2023-02-11T02:11:15;-0.10;97.80
10123;DHT22;5101;49.038;8.710;2023-02-11T02:13:40;-0.10;97.80
10123;DHT22;5101;49.038;8.710;2023-02-11T02:16:14;-0.10;97.90
10123;DHT22;5101;49.038;8.710;2023-02-11T02:24:23;-0.10;98.00
10123;DHT22;5101;49.038;8.710;2023-02-11T02:34:37;-0.10;98.40
10123;DHT22;5101;49.038;8.710;2023-02-11T02:37:14;-0.10;98.20
10123;DHT22;5101;49.038;8.710;2023-02-11T02:39:42;-0.10;98.30
10123;DHT22;5101;49.038;8.710;2023-02-11T02:42:09;-0.10;98.30
10123;DHT22;5101;49.038;8.710;2023-02-11T02:44:35;-0.10;98.40
10123;DHT22;5101;49.038;8.710;2023-02-11T02:47:00;-0.10;98.80
10123;DHT22;5101;49.038;8.710;2023-02-11T02:49:26;-0.10;98.60
10123;DHT22;5101;49.038;8.710;2023-02-11T02:52:06;-0.10;98.90
10123;DHT22;5101;49.038;8.710;2023-02-11T02:54:55;-0.10;99.00
10123;DHT22;5101;49.038;8.710;2023-02-11T03:00:43;-0.10;99.10
10123;DHT22;5101;49.038;8.710;2023-02-11T03:09:28;-0.10;99.30
10123;DHT22;5101;49.038;8.710;2023-02-11T03:11:55;-0.20;99.30
10123;DHT22;5101;49.038;8.710;2023-02-11T03:14:22;-0.20;99.40
10123;DHT22;5101;49.038;8.710;2023-02-11T03:16:51;-0.20;99.60
10123;DHT22;5101;49.038;8.710;2023-02-11T03:19:21;-0.20;99.70
10123;DHT22;5101;49.038;8.710;2023-02-11T03:21:48;-0.20;99.90
10123;DHT22;5101;49.038;8.710;2023-02-11T03:24:35;-0.10;99.90
10123;DHT22;5101;49.038;8.710;2023-02-11T03:27:10;-0.10;99.90
10123;DHT22;5101;49.038;8.710;2023-02-11T03:29:45;-0.10;99.90
10123;DHT22;5101;49.038;8.710;2023-02-11T03:32:22;-0.10;99.90
10123;DHT22;5101;49.038;8.710;2023-02-11T03:35:22;0.00;99.90
10123;DHT22;5101;49.038;8.710;2023-02-11T03:38:16;0.00;99.90
10123;DHT22;5101;49.038;8.710;2023-02-11T03:40:41;0.00;99.90
10123;DHT22;5101;49.038;8.710;2023-02-11T03:43:13;0.00;99.90
10123;DHT22;5101;49.038;8.710;2023-02-11T03:45:41;0.00;99.90
10123;DHT22;5101;49.038;8.710;2023-02-11T03:48:14;0.00;99.90
10123;DHT22;5101;49.038;8.710;2023-02-11T03:50:41;0.00;99.90
10123;DHT22;5101;49.038;8.710;2023-02-11T03:53:08;0.10;99.90
10123;DHT22;5101;49.038;8.710;2023-02-11T03:55:37;0.10;99.90
10123;DHT22;5101;49.038;8.710;2023-02-11T03:58:04;0.20;99.90
10123;DHT22;5101;49.038;8.710;2023-02-11T04:00:31;0.20;99.90
10123;DHT22;5101;49.038;8.710;2023-02-11T04:02:58;0.30;99.90
10123;DHT22;5101;49.038;8.710;2023-02-11T04:05:23;0.30;99.90
10123;DHT22;5101;49.038;8.710;2023-02-11T04:07:49;0.30;99.90
10123;DHT22;5101;49.038;8.710;2023-02-11T04:10:14;0.40;99.90
10123;DHT22;5101;49.038;8.710;2023-02-11T04:12:40;0.50;99.90
10123;DHT22;5101;49.038;8.710;2023-02-11T04:15:06;0.50;99.90
10123;DHT22;5101;49.038;8.710;2023-02-11T04:17:32;0.50;99.90
10123;DHT22;5101;49.038;8.710;2023-02-11T04:19:57;0.60;99.90
10123;DHT22;5101;49.038;8.710;2023-02-11T04:22:23;0.60;99.90
10123;DHT22;5101;49.038;8.710;2023-02-11T04:24:48;0.70;99.90
10123;DHT22;5101;49.038;8.710;2023-02-11T04:27:14;0.70;99.90
10123;DHT22;5101;49.038;8.710;2023-02-11T04:29:39;0.70;99.90
10123;DHT22;5101;49.038;8.710;2023-02-11T04:32:05;0.80;99.90
10123;DHT22;5101;49.038;8.710;2023-02-11T04:34:30;0.80;99.90
10123;DHT22;5101;49.038;8.710;2023-02-11T04:36:56;0.80;99.90
10123;DHT22;5101;49.038;8.710;2023-02-11T04:39:21;0.70;99.90
10123;DHT22;5101;49.038;8.710;2023-02-11T04:41:47;0.80;99.90
10123;DHT22;5101;49.038;8.710;2023-02-11T04:44:12;0.80;99.90
10123;DHT22;5101;49.038;8.710;2023-02-11T04:46:38;0.90;99.90
10123;DHT22;5101;49.038;8.710;2023-02-11T04:49:03;0.90;99.90
10123;DHT22;5101;49.038;8.710;2023-02-11T04:51:29;0.90;99.90
10123;DHT22;5101;49.038;8.710;2023-02-11T04:53:55;1.00;99.90
10123;DHT22;5101;49.038;8.710;2023-02-11T04:56:20;1.00;99.90
10123;DHT22;5101;49.038;8.710;2023-02-11T04:58:46;1.00;99.90
10123;DHT22;5101;49.038;8.710;2023-02-11T05:01:14;1.00;99.90
10123;DHT22;5101;49.038;8.710;2023-02-11T05:03:40;1.10;99.90
10123;DHT22;5101;49.038;8.710;2023-02-11T05:06:06;1.10;99.90
10123;DHT22;5101;49.038;8.710;2023-02-11T05:08:32;1.20;99.90
10123;DHT22;5101;49.038;8.710;2023-02-11T05:10:58;1.20;99.90
10123;DHT22;5101;49.038;8.710;2023-02-11T05:13:23;1.30;99.90
10123;DHT22;5101;49.038;8.710;2023-02-11T05:15:49;1.20;99.90
10123;DHT22;5101;49.038;8.710;2023-02-11T05:18:14;1.30;99.90
10123;DHT22;5101;49.038;8.710;2023-02-11T05:20:41;1.40;99.90
10123;DHT22;5101;49.038;8.710;2023-02-11T05:23:07;1.40;99.90
10123;DHT22;5101;49.038;8.710;2023-02-11T05:25:33;1.40;99.90
10123;DHT22;5101;49.038;8.710;2023-02-11T05:27:58;1.50;99.90
10123;DHT22;5101;49.038;8.710;2023-02-11T05:30:24;1.50;99.90
10123;DHT22;5101;49.038;8.710;2023-02-11T05:32:50;1.60;99.90
10123;DHT22;5101;49.038;8.710;2023-02-11T05:35:15;1.60;99.90
10123;DHT22;5101;49.038;8.710;2023-02-11T05:37:41;1.70;99.90
10123;DHT22;5101;49.038;8.710;2023-02-11T05:40:07;1.70;99.90
10123;DHT22;5101;49.038;8.710;2023-02-11T05:42:32;1.80;99.90
10123;DHT22;5101;49.038;8.710;2023-02-11T05:44:58;1.80;99.90
10123;DHT22;5101;49.038;8.710;2023-02-11T05:47:23;1.90;99.90
10123;DHT22;5101;49.038;8.710;2023-02-11T05:49:50;1.90;99.90
10123;DHT22;5101;49.038;8.710;2023-02-11T05:52:15;1.90;99.90
10123;DHT22;5101;49.038;8.710;2023-02-11T05:54:41;2.00;99.90
10123;DHT22;5101;49.038;8.710;2023-02-11T05:57:06;2.00;99.90
10123;DHT22;5101;49.038;8.710;2023-02-11T05:59:32;2.00;99.90
10123;DHT22;5101;49.038;8.710;2023-02-11T06:01:57;2.10;99.90
10123;DHT22;5101;49.038;8.710;2023-02-11T06:04:23;2.10;99.90
10123;DHT22;5101;49.038;8.710;2023-02-11T06:06:48;2.10;99.90
10123;DHT22;5101;49.038;8.710;2023-02-11T06:09:14;2.20;99.90
10123;DHT22;5101;49.038;8.710;2023-02-11T06:11:39;2.20;99.90
10123;DHT22;5101;49.038;8.710;2023-02-11T06:14:04;2.20;99.90
10123;DHT22;5101;49.038;8.710;2023-02-11T06:16:30;2.30;99.90
10123;DHT22;5101;49.038;8.710;2023-02-11T06:18:55;2.30;99.90
10123;DHT22;5101;49.038;8.710;2023-02-11T06:21:21;2.30;99.90
10123;DHT22;5101;49.038;8.710;2023-02-11T06:23:46;2.40;99.90
10123;DHT22;5101;49.038;8.710;2023-02-11T06:26:21;2.40;99.90
10123;DHT22;5101;49.038;8.710;2023-02-11T06:28:47;2.50;99.90
10123;DHT22;5101;49.038;8.710;2023-02-11T06:31:12;2.50;99.90
10123;DHT22;5101;49.038;8.710;2023-02-11T06:33:38;2.50;99.90
10123;DHT22;5101;49.038;8.710;2023-02-11T06:36:08;2.50;99.90
10123;DHT22;5101;49.038;8.710;2023-02-11T06:38:36;2.50;99.90
10123;DHT22;5101;49.038;8.710;2023-02-11T06:41:02;2.50;99.90
10123;DHT22;5101;49.038;8.710;2023-02-11T06:43:27;2.60;99.90
10123;DHT22;5101;49.038;8.710;2023-02-11T06:45:53;2.70;99.90
10123;DHT22;5101;49.038;8.710;2023-02-11T06:48:19;2.60;99.90
10123;DHT22;5101;49.038;8.710;2023-02-11T06:50:45;2.60;99.90
10123;DHT22;5101;49.038;8.710;2023-02-11T06:53:10;2.60;99.90
10123;DHT22;5101;49.038;8.710;2023-02-11T06:55:36;2.70;99.90
10123;DHT22;5101;49.038;8.710;2023-02-11T06:58:01;2.70;99.90
10123;DHT22;5101;49.038;8.710;2023-02-11T07:00:27;2.70;99.90
10123;DHT22;5101;49.038;8.710;2023-02-11T07:02:54;2.70;99.90
10123;DHT22;5101;49.038;8.710;2023-02-11T07:05:20;2.70;99.90
10123;DHT22;5101;49.038;8.710;2023-02-11T07:07:45;2.80;99.90
10123;DHT22;5101;49.038;8.710;2023-02-11T07:10:11;2.80;99.90
10123;DHT22;5101;49.038;8.710;2023-02-11T07:12:37;2.80;99.90
10123;DHT22;5101;49.038;8.710;2023-02-11T07:15:03;2.70;99.90
10123;DHT22;5101;49.038;8.710;2023-02-11T07:17:29;2.80;99.90
10123;DHT22;5101;49.038;8.710;2023-02-11T07:19:55;2.70;99.90
10123;DHT22;5101;49.038;8.710;2023-02-11T07:22:20;2.70;99.90
10123;DHT22;5101;49.038;8.710;2023-02-11T07:24:46;2.70;99.90
10123;DHT22;5101;49.038;8.710;2023-02-11T07:27:11;2.80;99.90
10123;DHT22;5101;49.038;8.710;2023-02-11T07:29:37;2.80;99.90
10123;DHT22;5101;49.038;8.710;2023-02-11T07:32:02;2.90;99.90
10123;DHT22;5101;49.038;8.710;2023-02-11T07:34:28;2.90;99.90
10123;DHT22;5101;49.038;8.710;2023-02-11T07:36:53;3.10;99.90
10123;DHT22;5101;49.038;8.710;2023-02-11T07:39:19;2.90;99.90
10123;DHT22;5101;49.038;8.710;2023-02-11T07:41:46;3.00;99.90
10123;DHT22;5101;49.038;8.710;2023-02-11T07:44:13;3.00;99.90
10123;DHT22;5101;49.038;8.710;2023-02-11T07:46:39;3.10;99.90
10123;DHT22;5101;49.038;8.710;2023-02-11T07:49:09;3.10;99.90
10123;DHT22;5101;49.038;8.710;2023-02-11T07:51:34;3.20;99.90
10123;DHT22;5101;49.038;8.710;2023-02-11T07:54:00;3.20;99.90
10123;DHT22;5101;49.038;8.710;2023-02-11T07:56:26;3.20;99.90
10123;DHT22;5101;49.038;8.710;2023-02-11T07:58:52;3.30;99.90
10123;DHT22;5101;49.038;8.710;2023-02-11T08:01:20;3.80;99.90
10123;DHT22;5101;49.038;8.710;2023-02-11T08:03:46;3.80;99.90
10123;DHT22;5101;49.038;8.710;2023-02-11T08:06:15;3.70;99.90
10123;DHT22;5101;49.038;8.710;2023-02-11T08:08:42;3.80;99.90
10123;DHT22;5101;49.038;8.710;2023-02-11T08:11:12;3.80;99.90
10123;DHT22;5101;49.038;8.710;2023-02-11T08:13:38;3.80;99.90
10123;DHT22;5101;49.038;8.710;2023-02-11T08:16:04;3.80;99.70
10123;DHT22;5101;49.038;8.710;2023-02-11T08:18:31;3.80;99.40
10123;DHT22;5101;49.038;8.710;2023-02-11T08:21:03;3.80;99.20
10123;DHT22;5101;49.038;8.710;2023-02-11T08:23:28;3.90;99.00
10123;DHT22;5101;49.038;8.710;2023-02-11T08:25:54;3.90;98.70
10123;DHT22;5101;49.038;8.710;2023-02-11T08:28:19;4.10;98.60
10123;DHT22;5101;49.038;8.710;2023-02-11T08:30:45;4.10;98.40
10123;DHT22;5101;49.038;8.710;2023-02-11T08:33:10;4.10;98.20
10123;DHT22;5101;49.038;8.710;2023-02-11T08:35:36;4.20;97.80
10123;DHT22;5101;49.038;8.710;2023-02-11T08:38:04;4.40;97.50
10123;DHT22;5101;49.038;8.710;2023-02-11T08:40:29;4.60;97.20
10123;DHT22;5101;49.038;8.710;2023-02-11T08:42:55;4.50;96.80
10123;DHT22;5101;49.038;8.710;2023-02-11T08:45:20;4.90;96.60
10123;DHT22;5101;49.038;8.710;2023-02-11T08:47:46;4.70;96.20
10123;DHT22;5101;49.038;8.710;2023-02-11T08:50:11;4.90;96.00
10123;DHT22;5101;49.038;8.710;2023-02-11T08:52:36;5.00;95.60
10123;DHT22;5101;49.038;8.710;2023-02-11T08:55:02;5.10;95.20
10123;DHT22;5101;49.038;8.710;2023-02-11T08:57:28;5.30;94.90
10123;DHT22;5101;49.038;8.710;2023-02-11T08:59:53;5.60;94.40
10123;DHT22;5101;49.038;8.710;2023-02-11T09:02:19;5.90;94.10
10123;DHT22;5101;49.038;8.710;2023-02-11T09:04:44;6.00;93.60
10123;DHT22;5101;49.038;8.710;2023-02-11T09:07:10;6.20;93.20
10123;DHT22;5101;49.038;8.710;2023-02-11T09:09:36;6.50;92.70
10123;DHT22;5101;49.038;8.710;2023-02-11T09:12:02;6.70;92.00
10123;DHT22;5101;49.038;8.710;2023-02-11T09:14:28;6.90;91.50
10123;DHT22;5101;49.038;8.710;2023-02-11T09:16:53;7.20;90.80
10123;DHT22;5101;49.038;8.710;2023-02-11T09:19:19;7.60;90.20
10123;DHT22;5101;49.038;8.710;2023-02-11T09:21:45;7.90;88.90
10123;DHT22;5101;49.038;8.710;2023-02-11T09:24:11;8.30;87.10
10123;DHT22;5101;49.038;8.710;2023-02-11T09:26:37;8.70;85.30
10123;DHT22;5101;49.038;8.710;2023-02-11T09:29:04;9.00;83.30
10123;DHT22;5101;49.038;8.710;2023-02-11T09:31:31;9.10;81.90
10123;DHT22;5101;49.038;8.710;2023-02-11T09:34:02;9.40;80.20
10123;DHT22;5101;49.038;8.710;2023-02-11T09:36:31;9.60;78.10
10123;DHT22;5101;49.038;8.710;2023-02-11T09:38:58;9.60;77.30
10123;DHT22;5101;49.038;8.710;2023-02-11T09:44:20;9.90;75.30
10123;DHT22;5101;49.038;8.710;2023-02-11T09:46:52;9.90;74.60
10123;DHT22;5101;49.038;8.710;2023-02-11T09:49:23;9.90;74.00
10123;DHT22;5101;49.038;8.710;2023-02-11T09:52:29;9.60;74.10
10123;DHT22;5101;49.038;8.710;2023-02-11T09:54:59;9.60;73.50
10123;DHT22;5101;49.038;8.710;2023-02-11T09:57:32;9.50;73.50
10123;DHT22;5101;49.038;8.710;2023-02-11T09:59:59;9.70;73.30
10123;DHT22;5101;49.038;8.710;2023-02-11T10:02:33;9.90;72.60
10123;DHT22;5101;49.038;8.710;2023-02-11T10:13:57;10.10;69.60
10123;DHT22;5101;49.038;8.710;2023-02-11T10:16:57;10.10;69.40
10123;DHT22;5101;49.038;8.710;2023-02-11T10:22:44;10.00;69.10
10123;DHT22;5101;49.038;8.710;2023-02-11T10:27:45;10.00;69.10
10123;DHT22;5101;49.038;8.710;2023-02-11T10:30:30;10.20;68.80
10123;DHT22;5101;49.038;8.710;2023-02-11T10:33:03;10.30;68.20
10123;DHT22;5101;49.038;8.710;2023-02-11T10:35:30;10.50;67.30
10123;DHT22;5101;49.038;8.710;2023-02-11T10:37:57;10.60;66.80
10123;DHT22;5101;49.038;8.710;2023-02-11T10:40:27;10.80;66.00
10123;DHT22;5101;49.038;8.710;2023-02-11T10:42:56;11.10;64.60
10123;DHT22;5101;49.038;8.710;2023-02-11T10:45:35;11.20;63.50
10123;DHT22;5101;49.038;8.710;2023-02-11T10:48:06;11.40;62.80
10123;DHT22;5101;49.038;8.710;2023-02-11T10:53:37;11.40;61.80
10123;DHT22;5101;49.038;8.710;2023-02-11T10:56:03;11.40;62.00
10123;DHT22;5101;49.038;8.710;2023-02-11T10:58:36;11.30;62.00
10123;DHT22;5101;49.038;8.710;2023-02-11T11:01:04;11.40;61.50
10123;DHT22;5101;49.038;8.710;2023-02-11T11:03:44;11.40;61.30
10123;DHT22;5101;49.038;8.710;2023-02-11T11:06:11;11.50;61.20
10123;DHT22;5101;49.038;8.710;2023-02-11T11:08:46;11.70;61.10
10123;DHT22;5101;49.038;8.710;2023-02-11T11:11:14;12.00;60.30
10123;DHT22;5101;49.038;8.710;2023-02-11T11:16:29;12.20;58.80
10123;DHT22;5101;49.038;8.710;2023-02-11T11:21:45;12.70;58.10
10123;DHT22;5101;49.038;8.710;2023-02-11T11:24:21;12.90;56.70
10123;DHT22;5101;49.038;8.710;2023-02-11T11:26:53;12.90;56.70
10123;DHT22;5101;49.038;8.710;2023-02-11T11:29:38;12.80;57.00
10123;DHT22;5101;49.038;8.710;2023-02-11T11:32:25;12.60;57.20
10123;DHT22;5101;49.038;8.710;2023-02-11T11:34:53;12.50;57.70
10123;DHT22;5101;49.038;8.710;2023-02-11T11:37:28;12.40;58.10
10123;DHT22;5101;49.038;8.710;2023-02-11T11:42:39;12.30;58.40
10123;DHT22;5101;49.038;8.710;2023-02-11T11:45:19;12.20;58.90
10123;DHT22;5101;49.038;8.710;2023-02-11T11:51:03;12.10;59.20
10123;DHT22;5101;49.038;8.710;2023-02-11T11:56:13;12.10;59.50
10123;DHT22;5101;49.038;8.710;2023-02-11T11:58:39;12.10;59.40
10123;DHT22;5101;49.038;8.710;2023-02-11T12:17:41;11.70;61.40
10123;DHT22;5101;49.038;8.710;2023-02-11T12:26:19;11.90;61.00
10123;DHT22;5101;49.038;8.710;2023-02-11T12:28:54;12.00;60.80
10123;DHT22;5101;49.038;8.710;2023-02-11T12:31:32;11.90;61.20
10123;DHT22;5101;49.038;8.710;2023-02-11T12:39:33;12.10;60.80
10123;DHT22;5101;49.038;8.710;2023-02-11T12:48:42;12.00;60.80
10123;DHT22;5101;49.038;8.710;2023-02-11T12:51:28;11.90;61.10
10123;DHT22;5101;49.038;8.710;2023-02-11T12:54:23;11.90;61.60
10123;DHT22;5101;49.038;8.710;2023-02-11T12:57:14;11.90;61.50
10123;DHT22;5101;49.038;8.710;2023-02-11T12:59:52;11.80;61.90
10123;DHT22;5101;49.038;8.710;2023-02-11T13:07:58;12.00;62.10
10123;DHT22;5101;49.038;8.710;2023-02-11T13:10:39;12.10;62.10
10123;DHT22;5101;49.038;8.710;2023-02-11T13:13:30;12.20;61.90
10123;DHT22;5101;49.038;8.710;2023-02-11T13:16:03;12.30;61.90
10123;DHT22;5101;49.038;8.710;2023-02-11T13:18:35;12.30;61.90
10123;DHT22;5101;49.038;8.710;2023-02-11T13:21:24;12.30;61.70
10123;DHT22;5101;49.038;8.710;2023-02-11T13:23:58;12.30;62.20
10123;DHT22;5101;49.038;8.710;2023-02-11T13:26:32;12.30;61.80
10123;DHT22;5101;49.038;8.710;2023-02-11T13:29:09;12.20;61.80
10123;DHT22;5101;49.038;8.710;2023-02-11T13:31:38;12.20;61.90
10123;DHT22;5101;49.038;8.710;2023-02-11T13:34:23;12.20;62.10
10123;DHT22;5101;49.038;8.710;2023-02-11T13:36:56;12.20;62.00
10123;DHT22;5101;49.038;8.710;2023-02-11T13:39:22;12.20;61.60
10123;DHT22;5101;49.038;8.710;2023-02-11T13:41:48;12.10;61.60
10123;DHT22;5101;49.038;8.710;2023-02-11T13:47:01;11.80;62.40
10123;DHT22;5101;49.038;8.710;2023-02-11T13:49:31;11.70;62.70
10123;DHT22;5101;49.038;8.710;2023-02-11T13:51:59;11.70;63.00
10123;DHT22;5101;49.038;8.710;2023-02-11T13:54:32;11.60;63.10
10123;DHT22;5101;49.038;8.710;2023-02-11T13:59:57;11.60;63.60
10123;DHT22;5101;49.038;8.710;2023-02-11T14:02:31;11.60;63.90
10123;DHT22;5101;49.038;8.710;2023-02-11T14:05:24;11.60;64.00
10123;DHT22;5101;49.038;8.710;2023-02-11T14:10:54;11.40;64.40
10123;DHT22;5101;49.038;8.710;2023-02-11T14:13:23;11.30;64.70
10123;DHT22;5101;49.038;8.710;2023-02-11T14:21:21;11.20;65.90
10123;DHT22;5101;49.038;8.710;2023-02-11T14:23:49;11.20;66.40
10123;DHT22;5101;49.038;8.710;2023-02-11T14:31:33;11.20;66.80
10123;DHT22;5101;49.038;8.710;2023-02-11T14:37:08;11.30;67.00
10123;DHT22;5101;49.038;8.710;2023-02-11T14:42:21;11.20;67.00
10123;DHT22;5101;49.038;8.710;2023-02-11T14:44:51;11.20;67.70
10123;DHT22;5101;49.038;8.710;2023-02-11T14:47:23;11.10;67.20
10123;DHT22;5101;49.038;8.710;2023-02-11T14:49:52;11.10;67.40
10123;DHT22;5101;49.038;8.710;2023-02-11T14:52:38;11.10;67.60
10123;DHT22;5101;49.038;8.710;2023-02-11T14:55:25;11.20;67.80
10123;DHT22;5101;49.038;8.710;2023-02-11T14:58:25;11.10;67.70
10123;DHT22;5101;49.038;8.710;2023-02-11T15:00:57;11.10;67.80
10123;DHT22;5101;49.038;8.710;2023-02-11T15:03:27;11.10;67.90
10123;DHT22;5101;49.038;8.710;2023-02-11T15:06:04;11.10;68.20
10123;DHT22;5101;49.038;8.710;2023-02-11T15:08:30;11.00;68.20
10123;DHT22;5101;49.038;8.710;2023-02-11T15:10:59;11.10;68.20
10123;DHT22;5101;49.038;8.710;2023-02-11T15:13:28;11.00;68.40
10123;DHT22;5101;49.038;8.710;2023-02-11T15:16:06;11.00;68.60
10123;DHT22;5101;49.038;8.710;2023-02-11T15:18:39;10.90;69.00
10123;DHT22;5101;49.038;8.710;2023-02-11T15:21:06;10.90;69.00
10123;DHT22;5101;49.038;8.710;2023-02-11T15:23:32;10.90;69.70
10123;DHT22;5101;49.038;8.710;2023-02-11T15:25:58;10.90;69.20
10123;DHT22;5101;49.038;8.710;2023-02-11T15:28:33;10.90;69.30
10123;DHT22;5101;49.038;8.710;2023-02-11T15:31:26;10.90;69.40
10123;DHT22;5101;49.038;8.710;2023-02-11T15:33:52;10.90;69.60
10123;DHT22;5101;49.038;8.710;2023-02-11T15:36:22;10.80;69.50
10123;DHT22;5101;49.038;8.710;2023-02-11T15:39:15;10.80;69.90
10123;DHT22;5101;49.038;8.710;2023-02-11T15:41:41;10.80;70.20
10123;DHT22;5101;49.038;8.710;2023-02-11T15:44:28;10.80;70.30
10123;DHT22;5101;49.038;8.710;2023-02-11T15:46:54;10.80;70.60
10123;DHT22;5101;49.038;8.710;2023-02-11T15:49:20;10.70;70.50
10123;DHT22;5101;49.038;8.710;2023-02-11T15:51:48;10.70;70.70
10123;DHT22;5101;49.038;8.710;2023-02-11T15:54:23;10.70;71.70
10123;DHT22;5101;49.038;8.710;2023-02-11T15:56:51;10.70;71.60
10123;DHT22;5101;49.038;8.710;2023-02-11T15:59:35;10.60;71.60
10123;DHT22;5101;49.038;8.710;2023-02-11T16:04:59;10.60;72.00
10123;DHT22;5101;49.038;8.710;2023-02-11T16:07:49;10.60;72.20
10123;DHT22;5101;49.038;8.710;2023-02-11T16:10:20;10.60;72.60
10123;DHT22;5101;49.038;8.710;2023-02-11T16:15:45;10.60;73.00
10123;DHT22;5101;49.038;8.710;2023-02-11T16:20:50;10.60;73.00
10123;DHT22;5101;49.038;8.710;2023-02-11T16:23:26;10.50;72.90
10123;DHT22;5101;49.038;8.710;2023-02-11T16:26:05;10.50;73.10
10123;DHT22;5101;49.038;8.710;2023-02-11T16:28:33;10.50;73.40
10123;DHT22;5101;49.038;8.710;2023-02-11T16:30:59;10.50;73.30
10123;DHT22;5101;49.038;8.710;2023-02-11T16:33:24;10.50;73.30
10123;DHT22;5101;49.038;8.710;2023-02-11T16:35:50;10.50;73.20
10123;DHT22;5101;49.038;8.710;2023-02-11T16:38:16;10.50;73.30
10123;DHT22;5101;49.038;8.710;2023-02-11T16:40:42;10.50;73.50
10123;DHT22;5101;49.038;8.710;2023-02-11T16:43:09;10.40;73.60
10123;DHT22;5101;49.038;8.710;2023-02-11T16:45:37;10.40;74.00
10123;DHT22;5101;49.038;8.710;2023-02-11T16:48:07;10.40;74.40
10123;DHT22;5101;49.038;8.710;2023-02-11T16:50:33;10.40;74.40
10123;DHT22;5101;49.038;8.710;2023-02-11T16:52:59;10.40;74.40
10123;DHT22;5101;49.038;8.710;2023-02-11T16:55:27;10.40;74.40
10123;DHT22;5101;49.038;8.710;2023-02-11T16:57:52;10.30;74.60
10123;DHT22;5101;49.038;8.710;2023-02-11T17:00:21;10.20;74.90
10123;DHT22;5101;49.038;8.710;2023-02-11T17:02:46;10.10;75.20
10123;DHT22;5101;49.038;8.710;2023-02-11T17:05:20;10.10;75.50
10123;DHT22;5101;49.038;8.710;2023-02-11T17:07:50;10.10;75.80
10123;DHT22;5101;49.038;8.710;2023-02-11T17:10:20;10.10;76.00
10123;DHT22;5101;49.038;8.710;2023-02-11T17:12:46;10.10;76.30
10123;DHT22;5101;49.038;8.710;2023-02-11T17:15:12;10.00;76.50
10123;DHT22;5101;49.038;8.710;2023-02-11T17:17:38;10.00;76.60
10123;DHT22;5101;49.038;8.710;2023-02-11T17:20:04;10.00;76.80
10123;DHT22;5101;49.038;8.710;2023-02-11T17:22:30;9.80;78.50
10123;DHT22;5101;49.038;8.710;2023-02-11T17:24:55;9.70;79.10
10123;DHT22;5101;49.038;8.710;2023-02-11T17:27:21;9.70;79.30
10123;DHT22;5101;49.038;8.710;2023-02-11T17:29:47;9.70;79.40
10123;DHT22;5101;49.038;8.710;2023-02-11T17:32:12;9.70;79.60
10123;DHT22;5101;49.038;8.710;2023-02-11T17:34:38;9.70;79.70
10123;DHT22;5101;49.038;8.710;2023-02-11T17:37:04;9.70;79.90
10123;DHT22;5101;49.038;8.710;2023-02-11T17:39:34;9.70;80.00
10123;DHT22;5101;49.038;8.710;2023-02-11T17:42:00;9.70;80.10
10123;DHT22;5101;49.038;8.710;2023-02-11T17:44:26;9.60;80.30
10123;DHT22;5101;49.038;8.710;2023-02-11T17:46:51;9.60;80.40
10123;DHT22;5101;49.038;8.710;2023-02-11T17:49:17;9.60;80.70
10123;DHT22;5101;49.038;8.710;2023-02-11T17:51:42;9.60;81.00
10123;DHT22;5101;49.038;8.710;2023-02-11T17:54:12;9.50;81.30
10123;DHT22;5101;49.038;8.710;2023-02-11T17:56:38;9.50;81.50
10123;DHT22;5101;49.038;8.710;2023-02-11T17:59:05;9.50;81.70
10123;DHT22;5101;49.038;8.710;2023-02-11T18:01:32;9.40;81.70
10123;DHT22;5101;49.038;8.710;2023-02-11T18:03:57;9.40;81.90
10123;DHT22;5101;49.038;8.710;2023-02-11T18:06:23;9.40;82.10
10123;DHT22;5101;49.038;8.710;2023-02-11T18:08:49;9.40;82.40
10123;DHT22;5101;49.038;8.710;2023-02-11T18:11:15;9.40;82.60
10123;DHT22;5101;49.038;8.710;2023-02-11T18:13:42;9.30;82.70
10123;DHT22;5101;49.038;8.710;2023-02-11T18:16:07;9.30;82.90
10123;DHT22;5101;49.038;8.710;2023-02-11T18:18:33;9.30;83.00
10123;DHT22;5101;49.038;8.710;2023-02-11T18:21:01;9.30;83.10
10123;DHT22;5101;49.038;8.710;2023-02-11T18:23:32;9.30;83.30